sensor_id;sensor_type;location;lat;lon;timestamp;temperature;humidity
6948;DHT22;3513;47.664;9.162;2023-08-08T00:01:22;12.10;99.90
6948;DHT22;3513;47.664;9.162;2023-08-08T00:03:48;12.10;99.90
6948;DHT22;3513;47.664;9.162;2023-08-08T00:06:13;12.10;99.90
6948;DHT22;3513;47.664;9.162;2023-08-08T00:08:39;12.00;99.90
6948;DHT22;3513;47.664;9.162;2023-08-08T00:11:05;12.00;99.90
6948;DHT22;3513;47.664;9.162;2023-08-08T00:13:30;11.90;99.90
6948;DHT22;3513;47.664;9.162;2023-08-08T00:15:56;11.90;99.90
6948;DHT22;3513;47.664;9.162;2023-08-08T00:18:22;12.00;99.90
6948;DHT22;3513;47.664;9.162;2023-08-08T00:20:47;11.80;99.90
6948;DHT22;3513;47.664;9.162;2023-08-08T00:23:13;11.80;99.90
6948;DHT22;3513;47.664;9.162;2023-08-08T00:25:38;11.80;99.90
6948;DHT22;3513;47.664;9.162;2023-08-08T00:28:04;11.80;99.90
6948;DHT22;3513;47.664;9.162;2023-08-08T00:30:30;11.80;99.90
6948;DHT22;3513;47.664;9.162;2023-08-08T00:32:55;11.70;99.90
6948;DHT22;3513;47.664;9.162;2023-08-08T00:35:21;11.70;99.90
6948;DHT22;3513;47.664;9.162;2023-08-08T00:37:47;11.70;99.90
6948;DHT22;3513;47.664;9.162;2023-08-08T00:40:13;11.70;99.90
6948;DHT22;3513;47.664;9.162;2023-08-08T00:42:38;11.70;99.90
6948;DHT22;3513;47.664;9.162;2023-08-08T00:45:04;11.80;99.90
6948;DHT22;3513;47.664;9.162;2023-08-08T00:47:31;11.80;99.90
6948;DHT22;3513;47.664;9.162;2023-08-08T00:49:58;11.70;99.90
6948;DHT22;3513;47.664;9.162;2023-08-08T00:52:24;11.70;99.90
6948;DHT22;3513;47.664;9.162;2023-08-08T00:54:51;11.70;99.90
6948;DHT22;3513;47.664;9.162;2023-08-08T00:57:17;11.70;99.90
6948;DHT22;3513;47.664;9.162;2023-08-08T00:59:42;11.70;99.90
6948;DHT22;3513;47.664;9.162;2023-08-08T01:02:08;11.70;99.90
6948;DHT22;3513;47.664;9.162;2023-08-08T01:04:33;11.70;99.90
6948;DHT22;3513;47.664;9.162;2023-08-08T01:07:20;11.70;99.90
6948;DHT22;3513;47.664;9.162;2023-08-08T01:10:09;11.60;99.90
6948;DHT22;3513;47.664;9.162;2023-08-08T01:12:42;11.60;99.90
6948;DHT22;3513;47.664;9.162;2023-08-08T01:15:09;11.50;99.90
6948;DHT22;3513;47.664;9.162;2023-08-08T01:17:35;11.50;99.90
6948;DHT22;3513;47.664;9.162;2023-08-08T01:20:05;11.40;99.90
6948;DHT22;3513;47.664;9.162;2023-08-08T01:22:48;11.40;99.90
6948;DHT22;3513;47.664;9.162;2023-08-08T01:25:17;11.30;99.90
6948;DHT22;3513;47.664;9.162;2023-08-08T01:27:43;11.20;99.90
6948;DHT22;3513;47.664;9.162;2023-08-08T01:30:09;11.20;99.90
6948;DHT22;3513;47.664;9.162;2023-08-08T01:32:36;11.20;99.90
6948;DHT22;3513;47.664;9.162;2023-08-08T01:35:02;11.10;99.90
6948;DHT22;3513;47.664;9.162;2023-08-08T01:37:50;11.10;99.90
6948;DHT22;3513;47.664;9.162;2023-08-08T01:40:17;11.00;99.90
6948;DHT22;3513;47.664;9.162;2023-08-08T01:42:47;11.00;99.90
6948;DHT22;3513;47.664;9.162;2023-08-08T01:45:14;10.90;99.90
6948;DHT22;3513;47.664;9.162;2023-08-08T01:47:40;10.80;99.90
6948;DHT22;3513;47.664;9.162;2023-08-08T01:50:07;10.80;99.90
6948;DHT22;3513;47.664;9.162;2023-08-08T01:52:34;10.70;99.90
6948;DHT22;3513;47.664;9.162;2023-08-08T01:55:00;10.70;99.90
6948;DHT22;3513;47.664;9.162;2023-08-08T01:57:26;10.70;99.90
6948;DHT22;3513;47.664;9.162;2023-08-08T01:59:51;10.60;99.90
6948;DHT22;3513;47.664;9.162;2023-08-08T02:02:17;10.60;99.90
6948;DHT22;3513;47.664;9.162;2023-08-08T02:04:43;10.60;99.90
6948;DHT22;3513;47.664;9.162;2023-08-08T02:07:09;10.50;99.90
6948;DHT22;3513;47.664;9.162;2023-08-08T02:09:34;10.50;99.90
6948;DHT22;3513;47.664;9.162;2023-08-08T02:12:00;10.50;99.90
6948;DHT22;3513;47.664;9.162;2023-08-08T02:14:26;10.60;99.90
6948;DHT22;3513;47.664;9.162;2023-08-08T02:16:51;10.60;99.90
6948;DHT22;3513;47.664;9.162;2023-08-08T02:19:17;10.60;99.90
6948;DHT22;3513;47.664;9.162;2023-08-08T02:21:42;10.50;99.90
6948;DHT22;3513;47.664;9.162;2023-08-08T02:24:08;10.50;99.90
6948;DHT22;3513;47.664;9.162;2023-08-08T02:26:33;10.50;99.90
6948;DHT22;3513;47.664;9.162;2023-08-08T02:28:59;10.40;99.90
6948;DHT22;3513;47.664;9.162;2023-08-08T02:31:25;10.30;99.90
6948;DHT22;3513;47.664;9.162;2023-08-08T02:33:50;10.20;99.90
6948;DHT22;3513;47.664;9.162;2023-08-08T02:36:18;10.20;99.90
6948;DHT22;3513;47.664;9.162;2023-08-08T02:38:43;10.20;99.90
6948;DHT22;3513;47.664;9.162;2023-08-08T02:41:09;10.20;99.90
6948;DHT22;3513;47.664;9.162;2023-08-08T02:43:35;10.10;99.90
6948;DHT22;3513;47.664;9.162;2023-08-08T02:46:00;10.00;99.90
6948;DHT22;3513;47.664;9.162;2023-08-08T02:48:27;10.00;99.90
6948;DHT22;3513;47.664;9.162;2023-08-08T02:50:53;10.00;99.90
6948;DHT22;3513;47.664;9.162;2023-08-08T02:53:18;9.90;99.90
6948;DHT22;3513;47.664;9.162;2023-08-08T02:55:44;9.90;99.90
6948;DHT22;3513;47.664;9.162;2023-08-08T02:58:09;9.90;99.90
6948;DHT22;3513;47.664;9.162;2023-08-08T03:00:35;9.90;99.90
6948;DHT22;3513;47.664;9.162;2023-08-08T03:03:00;9.80;99.90
6948;DHT22;3513;47.664;9.162;2023-08-08T03:05:26;9.80;99.90
6948;DHT22;3513;47.664;9.162;2023-08-08T03:07:51;9.80;99.90
6948;DHT22;3513;47.664;9.162;2023-08-08T03:10:17;9.80;99.90
6948;DHT22;3513;47.664;9.162;2023-08-08T03:12:42;9.80;99.90
6948;DHT22;3513;47.664;9.162;2023-08-08T03:15:08;9.70;99.90
6948;DHT22;3513;47.664;9.162;2023-08-08T03:17:35;9.60;99.90
6948;DHT22;3513;47.664;9.162;2023-08-08T03:20:01;9.60;99.90
6948;DHT22;3513;47.664;9.162;2023-08-08T03:22:28;9.50;99.90
6948;DHT22;3513;47.664;9.162;2023-08-08T03:24:53;9.50;99.90
6948;DHT22;3513;47.664;9.162;2023-08-08T03:27:19;9.50;99.90
6948;DHT22;3513;47.664;9.162;2023-08-08T03:29:44;9.50;99.90
6948;DHT22;3513;47.664;9.162;2023-08-08T03:32:10;9.50;99.90
6948;DHT22;3513;47.664;9.162;2023-08-08T03:34:35;9.60;99.90
6948;DHT22;3513;47.664;9.162;2023-08-08T03:37:01;9.60;99.90
6948;DHT22;3513;47.664;9.162;2023-08-08T03:39:26;9.60;99.90
6948;DHT22;3513;47.664;9.162;2023-08-08T03:41:52;9.50;99.90
6948;DHT22;3513;47.664;9.162;2023-08-08T03:44:18;9.50;99.90
6948;DHT22;3513;47.664;9.162;2023-08-08T03:46:43;9.40;99.90
6948;DHT22;3513;47.664;9.162;2023-08-08T03:49:09;9.40;99.90
6948;DHT22;3513;47.664;9.162;2023-08-08T03:51:34;9.40;99.90
6948;DHT22;3513;47.664;9.162;2023-08-08T03:54:00;9.40;99.90
6948;DHT22;3513;47.664;9.162;2023-08-08T03:56:25;9.40;99.90
6948;DHT22;3513;47.664;9.162;2023-08-08T03:58:52;9.50;99.90
6948;DHT22;3513;47.664;9.162;2023-08-08T04:01:18;9.50;99.90
6948;DHT22;3513;47.664;9.162;2023-08-08T04:03:43;9.50;99.90
6948;DHT22;3513;47.664;9.162;2023-08-08T04:06:09;9.50;99.90
6948;DHT22;3513;47.664;9.162;2023-08-08T04:08:34;9.50;99.90
6948;DHT22;3513;47.664;9.162;2023-08-08T04:11:00;9.50;99.90
6948;DHT22;3513;47.664;9.162;2023-08-08T04:13:26;9.50;99.90
6948;DHT22;3513;47.664;9.162;2023-08-08T04:15:51;9.40;99.90
6948;DHT22;3513;47.664;9.162;2023-08-08T04:18:17;9.30;99.90
6948;DHT22;3513;47.664;9.162;2023-08-08T04:20:45;9.30;99.90
6948;DHT22;3513;47.664;9.162;2023-08-08T04:23:10;9.30;99.90
6948;DHT22;3513;47.664;9.162;2023-08-08T04:25:36;9.30;99.90
6948;DHT22;3513;47.664;9.162;2023-08-08T04:28:01;9.40;99.90
6948;DHT22;3513;47.664;9.162;2023-08-08T04:30:27;9.40;99.90
6948;DHT22;3513;47.664;9.162;2023-08-08T04:32:53;9.40;99.90
6948;DHT22;3513;47.664;9.162;2023-08-08T04:35:18;9.40;99.90
6948;DHT22;3513;47.664;9.162;2023-08-08T04:37:44;9.40;99.90
6948;DHT22;3513;47.664;9.162;2023-08-08T04:40:10;9.40;99.90
6948;DHT22;3513;47.664;9.162;2023-08-08T04:42:36;9.50;99.90
6948;DHT22;3513;47.664;9.162;2023-08-08T04:45:01;9.50;99.90
6948;DHT22;3513;47.664;9.162;2023-08-08T04:47:27;9.50;99.90
6948;DHT22;3513;47.664;9.162;2023-08-08T04:49:52;9.60;99.90
6948;DHT22;3513;47.664;9.162;2023-08-08T04:52:18;9.70;99.90
6948;DHT22;3513;47.664;9.162;2023-08-08T04:54:43;9.80;99.90
6948;DHT22;3513;47.664;9.162;2023-08-08T04:57:09;9.90;99.90
6948;DHT22;3513;47.664;9.162;2023-08-08T04:59:35;9.90;99.90
6948;DHT22;3513;47.664;9.162;2023-08-08T05:02:00;10.00;99.90
6948;DHT22;3513;47.664;9.162;2023-08-08T05:04:26;10.10;99.90
6948;DHT22;3513;47.664;9.162;2023-08-08T05:06:51;10.10;99.90
6948;DHT22;3513;47.664;9.162;2023-08-08T05:09:17;10.20;99.90
6948;DHT22;3513;47.664;9.162;2023-08-08T05:11:43;10.20;99.90
6948;DHT22;3513;47.664;9.162;2023-08-08T05:14:08;10.30;99.90
6948;DHT22;3513;47.664;9.162;2023-08-08T05:16:34;10.30;99.90
6948;DHT22;3513;47.664;9.162;2023-08-08T05:18:59;10.40;99.90
6948;DHT22;3513;47.664;9.162;2023-08-08T05:21:25;10.50;99.90
6948;DHT22;3513;47.664;9.162;2023-08-08T05:23:50;10.50;99.90
6948;DHT22;3513;47.664;9.162;2023-08-08T05:26:16;10.60;99.90
6948;DHT22;3513;47.664;9.162;2023-08-08T05:28:42;10.70;99.90
6948;DHT22;3513;47.664;9.162;2023-08-08T05:31:07;10.70;99.90
6948;DHT22;3513;47.664;9.162;2023-08-08T05:33:33;10.80;99.90
6948;DHT22;3513;47.664;9.162;2023-08-08T05:35:58;10.90;99.90
6948;DHT22;3513;47.664;9.162;2023-08-08T05:38:24;10.90;99.90
6948;DHT22;3513;47.664;9.162;2023-08-08T05:40:50;11.00;99.90
6948;DHT22;3513;47.664;9.162;2023-08-08T05:43:16;11.10;99.90
6948;DHT22;3513;47.664;9.162;2023-08-08T05:45:44;11.20;99.90
6948;DHT22;3513;47.664;9.162;2023-08-08T05:48:10;11.30;99.90
6948;DHT22;3513;47.664;9.162;2023-08-08T05:50:38;11.30;99.90
6948;DHT22;3513;47.664;9.162;2023-08-08T05:53:04;11.40;99.90
6948;DHT22;3513;47.664;9.162;2023-08-08T05:55:29;11.60;99.90
6948;DHT22;3513;47.664;9.162;2023-08-08T05:57:55;11.70;99.90
6948;DHT22;3513;47.664;9.162;2023-08-08T06:00:20;11.80;99.90
6948;DHT22;3513;47.664;9.162;2023-08-08T06:02:46;12.00;99.90
6948;DHT22;3513;47.664;9.162;2023-08-08T06:05:12;12.10;99.90
6948;DHT22;3513;47.664;9.162;2023-08-08T06:07:38;12.30;99.90
6948;DHT22;3513;47.664;9.162;2023-08-08T06:10:04;12.40;99.90
6948;DHT22;3513;47.664;9.162;2023-08-08T06:12:30;12.50;99.90
6948;DHT22;3513;47.664;9.162;2023-08-08T06:14:55;12.70;99.90
6948;DHT22;3513;47.664;9.162;2023-08-08T06:17:21;12.80;99.90
6948;DHT22;3513;47.664;9.162;2023-08-08T06:19:49;13.00;99.90
6948;DHT22;3513;47.664;9.162;2023-08-08T06:22:15;13.10;99.90
6948;DHT22;3513;47.664;9.162;2023-08-08T06:24:41;13.20;99.90
6948;DHT22;3513;47.664;9.162;2023-08-08T06:27:06;13.30;99.90
6948;DHT22;3513;47.664;9.162;2023-08-08T06:29:32;13.30;99.90
6948;DHT22;3513;47.664;9.162;2023-08-08T06:31:58;13.30;99.90
6948;DHT22;3513;47.664;9.162;2023-08-08T06:34:23;13.40;99.90
6948;DHT22;3513;47.664;9.162;2023-08-08T06:36:49;13.50;99.90
6948;DHT22;3513;47.664;9.162;2023-08-08T06:39:15;13.60;99.90
6948;DHT22;3513;47.664;9.162;2023-08-08T06:41:41;13.80;99.90
6948;DHT22;3513;47.664;9.162;2023-08-08T06:44:07;14.00;99.90
6948;DHT22;3513;47.664;9.162;2023-08-08T06:46:33;14.10;99.60
6948;DHT22;3513;47.664;9.162;2023-08-08T06:48:58;14.30;99.10
6948;DHT22;3513;47.664;9.162;2023-08-08T06:51:25;14.40;98.30
6948;DHT22;3513;47.664;9.162;2023-08-08T06:53:51;14.60;97.20
6948;DHT22;3513;47.664;9.162;2023-08-08T06:56:17;14.70;97.20
6948;DHT22;3513;47.664;9.162;2023-08-08T06:58:42;14.70;97.10
6948;DHT22;3513;47.664;9.162;2023-08-08T07:01:08;14.90;97.00
6948;DHT22;3513;47.664;9.162;2023-08-08T07:03:35;15.00;96.10
6948;DHT22;3513;47.664;9.162;2023-08-08T07:06:01;15.10;95.90
6948;DHT22;3513;47.664;9.162;2023-08-08T07:08:26;15.20;96.00
6948;DHT22;3513;47.664;9.162;2023-08-08T07:10:52;15.30;95.80
6948;DHT22;3513;47.664;9.162;2023-08-08T07:13:17;15.40;95.90
6948;DHT22;3513;47.664;9.162;2023-08-08T07:15:43;15.40;95.50
6948;DHT22;3513;47.664;9.162;2023-08-08T07:18:08;15.50;95.30
6948;DHT22;3513;47.664;9.162;2023-08-08T07:20:34;15.60;95.20
6948;DHT22;3513;47.664;9.162;2023-08-08T07:23:00;15.80;95.20
6948;DHT22;3513;47.664;9.162;2023-08-08T07:25:26;15.90;95.10
6948;DHT22;3513;47.664;9.162;2023-08-08T07:27:52;16.10;93.80
6948;DHT22;3513;47.664;9.162;2023-08-08T07:30:18;16.10;93.70
6948;DHT22;3513;47.664;9.162;2023-08-08T07:32:43;16.00;93.90
6948;DHT22;3513;47.664;9.162;2023-08-08T07:35:09;16.00;93.70
6948;DHT22;3513;47.664;9.162;2023-08-08T07:37:35;16.00;93.70
6948;DHT22;3513;47.664;9.162;2023-08-08T07:40:01;15.90;93.70
6948;DHT22;3513;47.664;9.162;2023-08-08T07:42:27;15.90;93.70
6948;DHT22;3513;47.664;9.162;2023-08-08T07:44:53;16.00;93.90
6948;DHT22;3513;47.664;9.162;2023-08-08T07:47:18;16.10;94.00
6948;DHT22;3513;47.664;9.162;2023-08-08T07:49:44;16.10;94.10
6948;DHT22;3513;47.664;9.162;2023-08-08T07:52:10;16.10;93.70
6948;DHT22;3513;47.664;9.162;2023-08-08T07:54:35;16.30;93.70
6948;DHT22;3513;47.664;9.162;2023-08-08T07:57:01;16.40;93.80
6948;DHT22;3513;47.664;9.162;2023-08-08T07:59:26;16.50;93.40
6948;DHT22;3513;47.664;9.162;2023-08-08T08:01:52;16.60;93.00
6948;DHT22;3513;47.664;9.162;2023-08-08T08:04:18;16.70;92.40
6948;DHT22;3513;47.664;9.162;2023-08-08T08:06:43;16.70;91.90
6948;DHT22;3513;47.664;9.162;2023-08-08T08:09:09;16.80;91.90
6948;DHT22;3513;47.664;9.162;2023-08-08T08:11:34;16.90;91.70
6948;DHT22;3513;47.664;9.162;2023-08-08T08:14:00;17.00;92.00
6948;DHT22;3513;47.664;9.162;2023-08-08T08:16:25;17.10;91.90
6948;DHT22;3513;47.664;9.162;2023-08-08T08:18:51;17.20;91.70
6948;DHT22;3513;47.664;9.162;2023-08-08T08:21:16;17.30;91.60
6948;DHT22;3513;47.664;9.162;2023-08-08T08:23:46;17.40;91.30
6948;DHT22;3513;47.664;9.162;2023-08-08T08:26:11;17.60;91.20
6948;DHT22;3513;47.664;9.162;2023-08-08T08:28:37;17.70;91.00
6948;DHT22;3513;47.664;9.162;2023-08-08T08:31:06;17.70;90.60
6948;DHT22;3513;47.664;9.162;2023-08-08T08:33:31;17.80;90.50
6948;DHT22;3513;47.664;9.162;2023-08-08T08:35:57;17.90;90.30
6948;DHT22;3513;47.664;9.162;2023-08-08T08:38:22;18.00;90.00
6948;DHT22;3513;47.664;9.162;2023-08-08T08:40:48;18.20;89.80
6948;DHT22;3513;47.664;9.162;2023-08-08T08:43:15;18.20;89.10
6948;DHT22;3513;47.664;9.162;2023-08-08T08:45:43;18.30;88.70
6948;DHT22;3513;47.664;9.162;2023-08-08T08:48:15;18.40;88.70
6948;DHT22;3513;47.664;9.162;2023-08-08T08:50:41;18.60;89.00
6948;DHT22;3513;47.664;9.162;2023-08-08T08:53:09;18.70;88.30
6948;DHT22;3513;47.664;9.162;2023-08-08T08:55:36;18.80;88.00
6948;DHT22;3513;47.664;9.162;2023-08-08T08:58:03;19.00;87.10
6948;DHT22;3513;47.664;9.162;2023-08-08T09:00:30;19.30;86.30
6948;DHT22;3513;47.664;9.162;2023-08-08T09:02:56;19.40;85.60
6948;DHT22;3513;47.664;9.162;2023-08-08T09:05:22;19.50;84.80
6948;DHT22;3513;47.664;9.162;2023-08-08T09:07:49;19.70;84.40
6948;DHT22;3513;47.664;9.162;2023-08-08T09:10:17;19.70;83.40
6948;DHT22;3513;47.664;9.162;2023-08-08T09:12:43;19.80;84.00
6948;DHT22;3513;47.664;9.162;2023-08-08T09:15:09;19.80;82.90
6948;DHT22;3513;47.664;9.162;2023-08-08T09:17:36;19.90;82.60
6948;DHT22;3513;47.664;9.162;2023-08-08T09:20:05;19.90;82.10
6948;DHT22;3513;47.664;9.162;2023-08-08T09:22:32;19.90;82.20
6948;DHT22;3513;47.664;9.162;2023-08-08T09:24:58;19.90;81.80
6948;DHT22;3513;47.664;9.162;2023-08-08T09:27:23;19.90;81.50
6948;DHT22;3513;47.664;9.162;2023-08-08T09:29:49;19.90;81.10
6948;DHT22;3513;47.664;9.162;2023-08-08T09:32:15;20.00;81.50
6948;DHT22;3513;47.664;9.162;2023-08-08T09:34:43;20.20;82.00
6948;DHT22;3513;47.664;9.162;2023-08-08T09:37:09;20.30;81.50
6948;DHT22;3513;47.664;9.162;2023-08-08T09:39:36;20.50;80.20
6948;DHT22;3513;47.664;9.162;2023-08-08T09:42:02;20.60;79.80
6948;DHT22;3513;47.664;9.162;2023-08-08T09:44:30;20.80;79.30
6948;DHT22;3513;47.664;9.162;2023-08-08T09:46:57;21.00;78.70
6948;DHT22;3513;47.664;9.162;2023-08-08T09:49:22;21.30;75.90
6948;DHT22;3513;47.664;9.162;2023-08-08T09:51:49;21.30;75.10
6948;DHT22;3513;47.664;9.162;2023-08-08T09:54:15;21.40;75.40
6948;DHT22;3513;47.664;9.162;2023-08-08T09:56:42;21.50;74.80
6948;DHT22;3513;47.664;9.162;2023-08-08T09:59:09;21.50;74.50
6948;DHT22;3513;47.664;9.162;2023-08-08T10:01:34;21.60;73.90
6948;DHT22;3513;47.664;9.162;2023-08-08T10:04:03;21.60;73.90
6948;DHT22;3513;47.664;9.162;2023-08-08T10:06:28;21.70;73.40
6948;DHT22;3513;47.664;9.162;2023-08-08T10:08:55;21.70;68.10
6948;DHT22;3513;47.664;9.162;2023-08-08T10:11:22;21.30;67.60
6948;DHT22;3513;47.664;9.162;2023-08-08T10:13:49;21.00;68.70
6948;DHT22;3513;47.664;9.162;2023-08-08T10:16:16;20.80;65.80
6948;DHT22;3513;47.664;9.162;2023-08-08T10:18:43;20.70;66.00
6948;DHT22;3513;47.664;9.162;2023-08-08T10:21:09;20.50;66.80
6948;DHT22;3513;47.664;9.162;2023-08-08T10:23:39;20.30;68.10
6948;DHT22;3513;47.664;9.162;2023-08-08T10:26:16;20.10;67.60
6948;DHT22;3513;47.664;9.162;2023-08-08T10:28:55;20.00;67.50
6948;DHT22;3513;47.664;9.162;2023-08-08T10:31:21;20.10;68.80
6948;DHT22;3513;47.664;9.162;2023-08-08T10:33:47;20.10;67.70
6948;DHT22;3513;47.664;9.162;2023-08-08T10:36:12;20.20;68.30
6948;DHT22;3513;47.664;9.162;2023-08-08T10:38:46;20.20;67.00
6948;DHT22;3513;47.664;9.162;2023-08-08T10:41:21;20.20;65.20
6948;DHT22;3513;47.664;9.162;2023-08-08T10:43:54;20.30;65.50
6948;DHT22;3513;47.664;9.162;2023-08-08T10:46:28;20.50;63.50
6948;DHT22;3513;47.664;9.162;2023-08-08T10:48:56;20.60;64.60
6948;DHT22;3513;47.664;9.162;2023-08-08T10:51:22;20.70;57.80
6948;DHT22;3513;47.664;9.162;2023-08-08T10:53:51;20.70;60.90
6948;DHT22;3513;47.664;9.162;2023-08-08T10:56:19;20.70;60.40
6948;DHT22;3513;47.664;9.162;2023-08-08T10:58:48;20.80;60.70
6948;DHT22;3513;47.664;9.162;2023-08-08T11:01:14;21.00;60.10
6948;DHT22;3513;47.664;9.162;2023-08-08T11:03:43;21.20;61.00
6948;DHT22;3513;47.664;9.162;2023-08-08T11:06:09;21.20;58.70
6948;DHT22;3513;47.664;9.162;2023-08-08T11:08:37;21.20;57.70
6948;DHT22;3513;47.664;9.162;2023-08-08T11:11:04;21.30;59.20
6948;DHT22;3513;47.664;9.162;2023-08-08T11:13:30;21.40;57.10
6948;DHT22;3513;47.664;9.162;2023-08-08T11:15:56;21.30;57.10
6948;DHT22;3513;47.664;9.162;2023-08-08T11:18:22;21.30;60.30
6948;DHT22;3513;47.664;9.162;2023-08-08T11:20:48;21.50;60.40
6948;DHT22;3513;47.664;9.162;2023-08-08T11:23:14;21.60;60.20
6948;DHT22;3513;47.664;9.162;2023-08-08T11:25:42;21.60;60.10
6948;DHT22;3513;47.664;9.162;2023-08-08T11:28:08;21.70;58.60
6948;DHT22;3513;47.664;9.162;2023-08-08T11:30:37;21.80;57.00
6948;DHT22;3513;47.664;9.162;2023-08-08T11:33:03;21.80;53.90
6948;DHT22;3513;47.664;9.162;2023-08-08T11:35:29;21.70;57.10
6948;DHT22;3513;47.664;9.162;2023-08-08T11:37:56;21.60;57.20
6948;DHT22;3513;47.664;9.162;2023-08-08T11:40:23;21.50;56.70
6948;DHT22;3513;47.664;9.162;2023-08-08T11:42:51;21.40;56.10
6948;DHT22;3513;47.664;9.162;2023-08-08T11:45:18;21.50;56.50
6948;DHT22;3513;47.664;9.162;2023-08-08T11:47:44;21.60;57.30
6948;DHT22;3513;47.664;9.162;2023-08-08T11:50:13;21.90;53.60
6948;DHT22;3513;47.664;9.162;2023-08-08T11:52:44;22.00;53.50
6948;DHT22;3513;47.664;9.162;2023-08-08T11:55:11;21.90;54.50
6948;DHT22;3513;47.664;9.162;2023-08-08T11:57:38;21.80;56.30
6948;DHT22;3513;47.664;9.162;2023-08-08T12:00:09;21.70;54.60
6948;DHT22;3513;47.664;9.162;2023-08-08T12:02:35;21.60;53.30
6948;DHT22;3513;47.664;9.162;2023-08-08T12:05:14;21.60;51.60
6948;DHT22;3513;47.664;9.162;2023-08-08T12:07:43;21.70;52.00
6948;DHT22;3513;47.664;9.162;2023-08-08T12:10:18;21.80;51.00
6948;DHT22;3513;47.664;9.162;2023-08-08T12:12:45;22.00;50.10
6948;DHT22;3513;47.664;9.162;2023-08-08T12:15:10;22.00;51.30
6948;DHT22;3513;47.664;9.162;2023-08-08T12:17:37;22.10;50.90
6948;DHT22;3513;47.664;9.162;2023-08-08T12:20:07;22.30;46.90
6948;DHT22;3513;47.664;9.162;2023-08-08T12:22:34;22.20;48.10
6948;DHT22;3513;47.664;9.162;2023-08-08T12:25:00;22.10;48.50
6948;DHT22;3513;47.664;9.162;2023-08-08T12:27:25;22.10;48.90
6948;DHT22;3513;47.664;9.162;2023-08-08T12:29:51;22.10;50.10
6948;DHT22;3513;47.664;9.162;2023-08-08T12:32:19;22.00;48.90
6948;DHT22;3513;47.664;9.162;2023-08-08T12:34:45;21.90;50.30
6948;DHT22;3513;47.664;9.162;2023-08-08T12:37:10;22.00;51.50
6948;DHT22;3513;47.664;9.162;2023-08-08T12:39:36;22.30;52.30
6948;DHT22;3513;47.664;9.162;2023-08-08T12:42:01;22.50;50.50
6948;DHT22;3513;47.664;9.162;2023-08-08T12:44:27;22.70;49.80
6948;DHT22;3513;47.664;9.162;2023-08-08T12:46:53;22.70;48.10
6948;DHT22;3513;47.664;9.162;2023-08-08T12:49:18;22.70;48.70
6948;DHT22;3513;47.664;9.162;2023-08-08T12:51:44;22.80;49.40
6948;DHT22;3513;47.664;9.162;2023-08-08T12:54:09;23.10;50.20
6948;DHT22;3513;47.664;9.162;2023-08-08T12:56:35;23.70;50.30
6948;DHT22;3513;47.664;9.162;2023-08-08T12:59:01;23.90;46.40
6948;DHT22;3513;47.664;9.162;2023-08-08T13:01:28;24.00;45.20
6948;DHT22;3513;47.664;9.162;2023-08-08T13:03:53;23.70;45.80
6948;DHT22;3513;47.664;9.162;2023-08-08T13:06:19;23.70;47.40
6948;DHT22;3513;47.664;9.162;2023-08-08T13:08:44;23.80;46.70
6948;DHT22;3513;47.664;9.162;2023-08-08T13:11:10;23.80;45.60
6948;DHT22;3513;47.664;9.162;2023-08-08T13:13:36;23.60;45.60
6948;DHT22;3513;47.664;9.162;2023-08-08T13:16:01;23.70;46.40
6948;DHT22;3513;47.664;9.162;2023-08-08T13:18:28;23.70;46.20
6948;DHT22;3513;47.664;9.162;2023-08-08T13:20:54;24.00;46.20
6948;DHT22;3513;47.664;9.162;2023-08-08T13:23:19;24.40;45.40
6948;DHT22;3513;47.664;9.162;2023-08-08T13:25:45;24.50;43.90
6948;DHT22;3513;47.664;9.162;2023-08-08T13:28:10;24.50;44.10
6948;DHT22;3513;47.664;9.162;2023-08-08T13:30:36;24.40;44.60
6948;DHT22;3513;47.664;9.162;2023-08-08T13:33:02;24.30;45.30
6948;DHT22;3513;47.664;9.162;2023-08-08T13:35:28;24.10;45.20
6948;DHT22;3513;47.664;9.162;2023-08-08T13:37:55;23.80;46.50
6948;DHT22;3513;47.664;9.162;2023-08-08T13:40:21;23.70;46.90
6948;DHT22;3513;47.664;9.162;2023-08-08T13:42:46;23.80;47.50
6948;DHT22;3513;47.664;9.162;2023-08-08T13:45:18;23.80;47.60
6948;DHT22;3513;47.664;9.162;2023-08-08T13:47:43;23.90;46.80
6948;DHT22;3513;47.664;9.162;2023-08-08T13:50:09;23.60;46.00
6948;DHT22;3513;47.664;9.162;2023-08-08T13:52:35;23.30;46.10
6948;DHT22;3513;47.664;9.162;2023-08-08T13:55:00;23.10;47.40
6948;DHT22;3513;47.664;9.162;2023-08-08T13:57:26;23.00;47.60
6948;DHT22;3513;47.664;9.162;2023-08-08T13:59:51;23.00;47.80
6948;DHT22;3513;47.664;9.162;2023-08-08T14:02:17;23.00;48.60
6948;DHT22;3513;47.664;9.162;2023-08-08T14:04:46;23.20;49.20
6948;DHT22;3513;47.664;9.162;2023-08-08T14:07:11;23.40;47.80
6948;DHT22;3513;47.664;9.162;2023-08-08T14:09:37;23.40;48.30
6948;DHT22;3513;47.664;9.162;2023-08-08T14:12:03;23.40;48.10
6948;DHT22;3513;47.664;9.162;2023-08-08T14:14:28;23.50;48.80
6948;DHT22;3513;47.664;9.162;2023-08-08T14:16:54;23.80;46.60
6948;DHT22;3513;47.664;9.162;2023-08-08T14:19:20;24.00;46.70
6948;DHT22;3513;47.664;9.162;2023-08-08T14:21:45;24.10;46.00
6948;DHT22;3513;47.664;9.162;2023-08-08T14:24:11;23.90;46.00
6948;DHT22;3513;47.664;9.162;2023-08-08T14:26:36;24.00;46.80
6948;DHT22;3513;47.664;9.162;2023-08-08T14:29:02;24.20;46.60
6948;DHT22;3513;47.664;9.162;2023-08-08T14:31:28;24.30;46.50
6948;DHT22;3513;47.664;9.162;2023-08-08T14:33:53;24.10;46.10
6948;DHT22;3513;47.664;9.162;2023-08-08T14:36:19;23.80;47.10
6948;DHT22;3513;47.664;9.162;2023-08-08T14:38:44;23.60;48.10
6948;DHT22;3513;47.664;9.162;2023-08-08T14:41:10;23.50;48.60
6948;DHT22;3513;47.664;9.162;2023-08-08T14:43:36;23.60;51.00
6948;DHT22;3513;47.664;9.162;2023-08-08T14:46:01;24.10;49.10
6948;DHT22;3513;47.664;9.162;2023-08-08T14:48:27;24.50;47.80
6948;DHT22;3513;47.664;9.162;2023-08-08T14:50:52;24.90;45.80
6948;DHT22;3513;47.664;9.162;2023-08-08T14:53:18;25.40;45.30
6948;DHT22;3513;47.664;9.162;2023-08-08T14:55:43;25.20;44.40
6948;DHT22;3513;47.664;9.162;2023-08-08T14:58:09;25.40;45.50
6948;DHT22;3513;47.664;9.162;2023-08-08T15:00:35;25.70;45.40
6948;DHT22;3513;47.664;9.162;2023-08-08T15:03:00;26.00;44.60
6948;DHT22;3513;47.664;9.162;2023-08-08T15:05:26;26.30;44.50
6948;DHT22;3513;47.664;9.162;2023-08-08T15:07:51;26.60;42.30
6948;DHT22;3513;47.664;9.162;2023-08-08T15:10:17;26.60;42.90
6948;DHT22;3513;47.664;9.162;2023-08-08T15:12:42;26.90;43.00
6948;DHT22;3513;47.664;9.162;2023-08-08T15:15:09;27.00;42.70
6948;DHT22;3513;47.664;9.162;2023-08-08T15:17:34;27.30;41.70
6948;DHT22;3513;47.664;9.162;2023-08-08T15:20:01;27.80;42.10
6948;DHT22;3513;47.664;9.162;2023-08-08T15:22:26;28.10;39.50
6948;DHT22;3513;47.664;9.162;2023-08-08T15:24:52;28.20;38.50
6948;DHT22;3513;47.664;9.162;2023-08-08T15:27:17;28.20;37.80
6948;DHT22;3513;47.664;9.162;2023-08-08T15:29:43;28.20;38.00
6948;DHT22;3513;47.664;9.162;2023-08-08T15:32:09;28.30;39.00
6948;DHT22;3513;47.664;9.162;2023-08-08T15:34:35;28.60;39.70
6948;DHT22;3513;47.664;9.162;2023-08-08T15:37:02;28.70;37.70
6948;DHT22;3513;47.664;9.162;2023-08-08T15:39:27;28.60;38.40
6948;DHT22;3513;47.664;9.162;2023-08-08T15:41:53;28.40;38.30
6948;DHT22;3513;47.664;9.162;2023-08-08T15:44:18;28.40;38.50
6948;DHT22;3513;47.664;9.162;2023-08-08T15:46:44;28.70;37.10
6948;DHT22;3513;47.664;9.162;2023-08-08T15:49:09;29.00;35.60
6948;DHT22;3513;47.664;9.162;2023-08-08T15:51:41;29.00;34.90
6948;DHT22;3513;47.664;9.162;2023-08-08T15:54:07;28.60;34.10
6948;DHT22;3513;47.664;9.162;2023-08-08T15:56:33;28.40;35.50
6948;DHT22;3513;47.664;9.162;2023-08-08T15:58:59;28.30;35.50